createdAt,value
2018-03-24T00:00:38.750Z,98.90
2018-03-24T00:03:06.941Z,98.90
2018-03-24T00:05:35.831Z,98.60
2018-03-24T00:08:04.811Z,99.10
2018-03-24T00:10:32.921Z,98.60
2018-03-24T00:13:01.091Z,98.60
2018-03-24T00:15:29.322Z,98.70
2018-03-24T00:17:57.441Z,98.90
2018-03-24T00:20:25.583Z,98.90
2018-03-24T00:22:53.752Z,99.10
2018-03-24T00:25:21.861Z,99.00
2018-03-24T00:27:50.835Z,98.60
2018-03-24T00:30:18.952Z,98.60
2018-03-24T00:32:47.110Z,99.00
2018-03-24T00:35:15.285Z,99.00
2018-03-24T00:37:43.450Z,99.10
2018-03-24T00:40:11.748Z,98.80
2018-03-24T00:42:39.866Z,98.70
2018-03-24T00:45:08.821Z,98.50
2018-03-24T00:47:36.970Z,98.50
2018-03-24T00:50:05.827Z,98.40
2018-03-24T00:52:34.029Z,98.40
2018-03-24T00:55:02.098Z,98.50
2018-03-24T00:57:30.283Z,98.60
2018-03-24T00:59:58.407Z,98.50
2018-03-24T01:02:27.340Z,98.40
2018-03-24T01:04:55.478Z,98.40
2018-03-24T01:07:23.652Z,98.40
2018-03-24T01:09:51.873Z,98.40
2018-03-24T01:12:20.008Z,98.40
2018-03-24T01:14:48.148Z,98.40
2018-03-24T01:17:17.062Z,98.50
2018-03-24T01:19:45.335Z,98.50
2018-03-24T01:22:13.447Z,98.50
2018-03-24T01:24:41.624Z,98.40
2018-03-24T01:27:09.752Z,98.50
2018-03-24T01:29:37.964Z,98.40
2018-03-24T01:32:06.113Z,98.40
2018-03-24T01:34:34.266Z,98.50
2018-03-24T01:37:02.642Z,98.40
2018-03-24T01:39:30.872Z,98.50
2018-03-24T01:41:59.048Z,98.30
2018-03-24T01:44:27.272Z,98.40
2018-03-24T01:46:55.384Z,98.30
2018-03-24T01:49:24.294Z,98.40
2018-03-24T01:51:53.208Z,98.40
2018-03-24T01:54:21.367Z,98.40
2018-03-24T01:56:49.583Z,98.40
2018-03-24T01:59:18.519Z,98.40
2018-03-24T02:01:46.703Z,98.30
2018-03-24T02:04:14.837Z,98.50
2018-03-24T02:06:43.721Z,98.40
2018-03-24T02:09:11.827Z,98.30
2018-03-24T02:11:40.806Z,98.50
2018-03-24T02:14:09.034Z,98.50
2018-03-24T02:16:37.972Z,98.60
2018-03-24T02:19:06.121Z,98.60
2018-03-24T02:21:35.097Z,98.70
2018-03-24T02:24:03.249Z,98.60
2018-03-24T02:26:31.402Z,98.60
2018-03-24T02:29:00.345Z,98.50
2018-03-24T02:31:28.543Z,98.50
2018-03-24T02:33:56.691Z,98.40
2018-03-24T02:36:25.010Z,98.20
2018-03-24T02:38:53.135Z,98.20
2018-03-24T02:41:21.292Z,98.40
2018-03-24T02:43:49.417Z,98.30
2018-03-24T02:46:18.343Z,98.30
2018-03-24T02:48:46.544Z,98.30
2018-03-24T02:51:14.688Z,98.30
2018-03-24T02:53:43.629Z,98.70
2018-03-24T02:56:11.798Z,98.30
2018-03-24T02:58:40.718Z,98.40
2018-03-24T03:01:08.824Z,98.30
2018-03-24T03:03:37.000Z,98.30
2018-03-24T03:06:05.162Z,98.30
2018-03-24T03:08:33.338Z,98.40
2018-03-24T03:11:01.438Z,98.30
2018-03-24T03:13:29.614Z,98.40
2018-03-24T03:15:58.539Z,98.40
2018-03-24T03:18:26.658Z,98.40
2018-03-24T03:20:54.814Z,98.50
2018-03-24T03:23:22.937Z,99.10
2018-03-24T03:25:51.040Z,98.90
2018-03-24T03:28:19.964Z,98.90
2018-03-24T03:30:49.042Z,98.90
2018-03-24T03:33:17.166Z,99.00
2018-03-24T03:35:45.308Z,99.10
2018-03-24T03:38:14.214Z,99.40
2018-03-24T03:40:42.383Z,99.10
2018-03-24T03:43:10.538Z,99.10
2018-03-24T03:45:38.677Z,99.20
2018-03-24T03:48:07.588Z,99.50
2018-03-24T03:50:36.514Z,99.40
2018-03-24T03:53:04.664Z,99.40
2018-03-24T03:55:32.785Z,99.60
2018-03-24T03:58:00.928Z,99.70
2018-03-24T04:00:29.911Z,99.80
2018-03-24T04:02:58.038Z,99.80
2018-03-24T04:05:26.926Z,99.70
2018-03-24T04:07:55.132Z,99.80
2018-03-24T04:10:24.034Z,99.90
2018-03-24T04:12:52.957Z,99.90
2018-03-24T04:15:21.088Z,99.90
2018-03-24T04:17:49.189Z,99.90
2018-03-24T04:20:17.392Z,99.90
2018-03-24T04:22:45.502Z,99.90
2018-03-24T04:25:13.645Z,99.90
2018-03-24T04:27:42.241Z,99.90
2018-03-24T04:30:10.424Z,99.90
2018-03-24T04:32:38.560Z,99.90
2018-03-24T04:35:07.485Z,99.90
2018-03-24T04:37:35.606Z,99.90
2018-03-24T04:40:03.728Z,99.90
2018-03-24T04:42:31.825Z,99.90
2018-03-24T04:44:59.972Z,99.90
2018-03-24T04:47:28.160Z,99.90
2018-03-24T04:49:56.294Z,99.90
2018-03-24T04:52:24.435Z,99.90
2018-03-24T04:54:52.612Z,99.90
2018-03-24T04:57:20.715Z,99.90
2018-03-24T04:59:48.848Z,99.90
2018-03-24T05:02:17.027Z,99.90
2018-03-24T05:04:45.153Z,99.90
2018-03-24T05:07:13.343Z,99.90
2018-03-24T05:09:42.980Z,99.90
2018-03-24T05:12:11.128Z,99.90
2018-03-24T05:14:39.378Z,99.90
2018-03-24T05:17:07.542Z,99.90
2018-03-24T05:19:36.438Z,99.90
2018-03-24T05:22:04.590Z,99.90
2018-03-24T05:24:32.707Z,99.90
2018-03-24T05:27:01.616Z,99.90
2018-03-24T05:29:30.555Z,99.90
2018-03-24T05:31:58.704Z,99.90
2018-03-24T05:34:27.202Z,99.90
2018-03-24T05:36:56.149Z,99.90
2018-03-24T05:39:24.321Z,99.90
2018-03-24T05:41:52.484Z,99.90
2018-03-24T05:44:21.390Z,99.90
2018-03-24T05:46:49.579Z,99.90
2018-03-24T05:49:18.514Z,99.90
2018-03-24T05:51:46.732Z,99.90
2018-03-24T05:54:15.775Z,99.90
2018-03-24T05:56:44.689Z,99.90
2018-03-24T05:59:12.883Z,99.90
2018-03-24T06:01:40.995Z,99.90
2018-03-24T06:04:09.139Z,99.90
2018-03-24T06:06:37.301Z,99.90
2018-03-24T06:09:05.448Z,99.90
2018-03-24T06:11:33.690Z,99.90
2018-03-24T06:14:02.596Z,99.90
2018-03-24T06:16:31.604Z,99.90
2018-03-24T06:19:00.667Z,99.90
2018-03-24T06:21:28.865Z,99.90
2018-03-24T06:23:56.991Z,99.90
2018-03-24T06:26:25.102Z,99.90
2018-03-24T06:28:53.264Z,99.90
2018-03-24T06:31:23.280Z,99.90
2018-03-24T06:33:52.198Z,99.90
2018-03-24T06:36:20.340Z,99.90
2018-03-24T06:38:48.463Z,99.90
2018-03-24T06:41:17.497Z,99.90
2018-03-24T06:43:45.673Z,99.90
2018-03-24T06:46:13.829Z,99.90
2018-03-24T06:48:41.940Z,99.90
2018-03-24T06:51:10.100Z,99.90
2018-03-24T06:53:38.990Z,99.90
2018-03-24T06:56:07.097Z,99.90
2018-03-24T06:58:36.143Z,99.90
2018-03-24T07:01:04.264Z,99.90
2018-03-24T07:03:32.541Z,99.90
2018-03-24T07:06:00.669Z,99.90
2018-03-24T07:08:30.727Z,99.90
2018-03-24T07:10:59.202Z,99.90
2018-03-24T07:13:27.393Z,99.90
2018-03-24T07:15:55.530Z,99.90
2018-03-24T07:18:23.648Z,99.90
2018-03-24T07:20:52.025Z,99.90
2018-03-24T07:23:20.182Z,99.90
2018-03-24T07:25:48.316Z,99.90
2018-03-24T07:28:16.467Z,99.90
2018-03-24T07:30:44.602Z,99.90
2018-03-24T07:33:12.848Z,99.90
2018-03-24T07:35:40.948Z,98.70
2018-03-24T07:38:09.848Z,95.50
2018-03-24T07:40:38.717Z,94.20
2018-03-24T07:43:06.830Z,94.20
2018-03-24T07:45:35.733Z,93.60
2018-03-24T07:48:04.760Z,94.90
2018-03-24T07:50:33.655Z,92.20
2018-03-24T07:53:02.564Z,90.70
2018-03-24T07:55:31.430Z,92.40
2018-03-24T07:57:59.614Z,92.40
2018-03-24T08:00:27.806Z,92.50
2018-03-24T08:02:56.150Z,88.40
2018-03-24T08:05:24.320Z,88.80
2018-03-24T08:07:52.445Z,92.00
2018-03-24T08:10:20.616Z,90.80
2018-03-24T08:12:48.786Z,88.00
2018-03-24T08:15:16.918Z,80.70
2018-03-24T08:17:45.073Z,79.80
2018-03-24T08:20:13.238Z,83.60
2018-03-24T08:22:41.346Z,76.50
2018-03-24T08:25:09.458Z,80.40
2018-03-24T08:27:37.578Z,78.90
2018-03-24T08:30:06.440Z,74.40
2018-03-24T08:32:35.633Z,74.40
2018-03-24T08:35:03.788Z,67.60
2018-03-24T08:37:32.736Z,72.90
2018-03-24T08:40:00.912Z,71.70
2018-03-24T08:42:29.132Z,65.50
2018-03-24T08:44:57.300Z,62.90
2018-03-24T08:47:25.445Z,57.80
2018-03-24T08:49:53.616Z,64.70
2018-03-24T08:52:22.518Z,57.60
2018-03-24T08:54:51.562Z,55.50
2018-03-24T08:57:19.670Z,55.40
2018-03-24T08:59:49.720Z,56.10
2018-03-24T09:02:17.817Z,53.00
2018-03-24T09:04:46.760Z,50.50
2018-03-24T09:07:14.907Z,50.60
2018-03-24T09:09:44.152Z,50.70
2018-03-24T09:12:12.268Z,51.20
2018-03-24T09:14:40.583Z,49.50
2018-03-24T09:17:08.780Z,47.10
2018-03-24T09:19:36.985Z,47.30
2018-03-24T09:22:05.863Z,45.30
2018-03-24T09:24:33.995Z,45.30
2018-03-24T09:27:02.136Z,43.80
2018-03-24T09:29:30.292Z,42.50
2018-03-24T09:31:58.560Z,45.30
2018-03-24T09:34:26.769Z,45.50
2018-03-24T09:36:55.217Z,46.50
2018-03-24T09:39:23.343Z,45.30
2018-03-24T09:41:51.495Z,46.80
2018-03-24T09:44:19.636Z,48.00
2018-03-24T09:46:47.791Z,48.40
2018-03-24T09:49:15.941Z,45.10
2018-03-24T09:51:44.082Z,45.50
2018-03-24T09:54:12.237Z,45.20
2018-03-24T09:56:40.350Z,45.20
2018-03-24T09:59:08.530Z,45.20
2018-03-24T10:01:36.685Z,47.10
2018-03-24T10:04:04.896Z,44.80
2018-03-24T10:06:33.065Z,43.40
2018-03-24T10:09:01.198Z,40.70
2018-03-24T10:11:29.325Z,39.80
2018-03-24T10:13:59.130Z,41.80
2018-03-24T10:16:28.133Z,41.70
2018-03-24T10:18:56.328Z,41.50
2018-03-24T10:21:54.670Z,41.80
2018-03-24T10:24:27.656Z,41.90
2018-03-24T10:26:56.068Z,37.30
2018-03-24T10:29:24.207Z,36.80
2018-03-24T10:31:52.602Z,40.20
2018-03-24T10:34:20.804Z,39.20
2018-03-24T10:36:49.008Z,40.00
2018-03-24T10:39:17.139Z,39.10
2018-03-24T10:41:46.121Z,39.20
2018-03-24T10:44:14.512Z,38.80
2018-03-24T10:46:42.711Z,38.50
2018-03-24T10:49:10.957Z,37.60
2018-03-24T10:51:39.997Z,38.80
2018-03-24T10:54:08.102Z,38.80
2018-03-24T10:56:37.022Z,38.50
2018-03-24T10:59:05.132Z,38.50
2018-03-24T11:01:33.327Z,37.60
2018-03-24T11:04:01.480Z,36.90
2018-03-24T11:06:29.625Z,34.80
2018-03-24T11:08:57.806Z,36.80
2018-03-24T11:11:26.122Z,38.40
2018-03-24T11:13:54.403Z,38.60
2018-03-24T11:16:22.646Z,39.80
2018-03-24T11:18:50.780Z,37.10
2018-03-24T11:21:18.943Z,36.50
2018-03-24T11:23:47.096Z,37.40
2018-03-24T11:26:15.192Z,38.50
2018-03-24T11:28:43.394Z,34.50
2018-03-24T11:31:11.541Z,33.00
2018-03-24T11:33:39.684Z,35.90
2018-03-24T11:36:07.857Z,36.70
2018-03-24T11:38:35.949Z,38.10
2018-03-24T11:41:04.116Z,34.90
2018-03-24T11:43:32.321Z,36.10
2018-03-24T11:46:00.482Z,37.20
2018-03-24T11:48:28.608Z,37.40
2018-03-24T11:50:56.704Z,37.80
2018-03-24T11:53:37.402Z,35.80
2018-03-24T11:56:05.534Z,35.80
2018-03-24T11:58:33.711Z,35.90
2018-03-24T12:01:01.847Z,35.20
2018-03-24T12:03:30.893Z,34.00
2018-03-24T12:05:59.082Z,33.90
2018-03-24T12:08:27.277Z,34.50
2018-03-24T12:10:55.406Z,34.30
2018-03-24T12:13:24.332Z,35.40
2018-03-24T12:15:53.398Z,35.80
2018-03-24T12:18:21.564Z,35.30
2018-03-24T12:20:49.735Z,35.60
2018-03-24T12:23:17.947Z,34.40
2018-03-24T12:25:46.084Z,34.80
2018-03-24T12:28:14.216Z,33.90
2018-03-24T12:30:42.351Z,30.00
2018-03-24T12:33:11.211Z,30.70
2018-03-24T12:35:39.390Z,30.70
2018-03-24T12:38:07.529Z,30.80
2018-03-24T12:40:35.689Z,33.00
2018-03-24T12:43:03.828Z,35.10
2018-03-24T12:45:31.942Z,35.90
2018-03-24T12:48:00.177Z,34.60
2018-03-24T12:50:28.283Z,34.00
2018-03-24T12:52:56.419Z,33.90
2018-03-24T12:55:25.359Z,33.60
2018-03-24T12:57:53.544Z,34.00
2018-03-24T13:00:21.649Z,34.60
2018-03-24T13:02:49.853Z,34.40
2018-03-24T13:05:18.032Z,35.00
2018-03-24T13:07:46.182Z,32.30
2018-03-24T13:12:48.193Z,33.40
2018-03-24T13:15:16.335Z,33.40
2018-03-24T13:17:44.472Z,32.10
2018-03-24T13:20:12.588Z,31.00
2018-03-24T13:22:40.726Z,30.10
2018-03-24T13:25:08.873Z,29.70
2018-03-24T13:27:37.060Z,30.50
2018-03-24T13:30:05.217Z,31.80
2018-03-24T13:32:33.324Z,31.50
2018-03-24T13:35:01.537Z,30.60
2018-03-24T13:37:29.673Z,30.60
2018-03-24T13:39:57.800Z,30.90
2018-03-24T13:42:26.724Z,31.20
2018-03-24T13:44:55.671Z,30.80
2018-03-24T13:47:23.785Z,30.70
2018-03-24T13:49:51.907Z,30.00
2018-03-24T13:52:19.982Z,31.30
2018-03-24T13:54:48.868Z,29.90
2018-03-24T13:57:17.828Z,29.40
2018-03-24T13:59:45.956Z,29.30
2018-03-24T14:02:14.254Z,30.10
2018-03-24T14:04:43.173Z,29.90
2018-03-24T14:07:12.152Z,32.20
2018-03-24T14:09:40.344Z,32.20
2018-03-24T14:12:08.445Z,33.80
2018-03-24T14:14:37.296Z,34.90
2018-03-24T14:17:05.405Z,34.80
2018-03-24T14:19:33.616Z,35.30
2018-03-24T14:22:02.525Z,36.30
2018-03-24T14:24:31.436Z,36.70
2018-03-24T14:26:59.579Z,36.70
2018-03-24T14:29:27.803Z,37.40
2018-03-24T14:31:56.704Z,38.10
2018-03-24T14:34:25.680Z,37.90
2018-03-24T14:36:53.827Z,37.90
2018-03-24T14:39:21.946Z,37.90
2018-03-24T14:41:50.106Z,38.20
2018-03-24T14:44:18.204Z,37.80
2018-03-24T14:46:46.328Z,37.40
2018-03-24T14:49:14.492Z,37.20
2018-03-24T14:51:42.597Z,37.90
2018-03-24T14:54:10.800Z,37.90
2018-03-24T14:56:38.970Z,37.20
2018-03-24T14:59:07.851Z,38.00
2018-03-24T15:01:36.072Z,37.60
2018-03-24T15:04:04.987Z,38.60
2018-03-24T15:06:33.295Z,38.60
2018-03-24T15:09:01.455Z,38.90
2018-03-24T15:11:29.806Z,38.00
2018-03-24T15:13:57.916Z,39.10
2018-03-24T15:16:26.803Z,38.30
2018-03-24T15:18:54.934Z,39.10
2018-03-24T15:21:23.119Z,38.70
2018-03-24T15:23:51.297Z,38.70
2018-03-24T15:26:20.248Z,39.20
2018-03-24T15:29:00.198Z,40.00
2018-03-24T15:34:43.858Z,40.40
2018-03-24T15:37:11.922Z,39.80
2018-03-24T15:39:40.742Z,40.90
2018-03-24T15:42:08.818Z,40.90
2018-03-24T15:44:36.881Z,40.00
2018-03-24T15:47:05.723Z,40.50
2018-03-24T15:49:33.781Z,40.50
2018-03-24T15:52:02.619Z,40.70
2018-03-24T15:54:30.662Z,40.70
2018-03-24T15:56:59.488Z,40.50
2018-03-24T15:59:27.577Z,40.50
2018-03-24T16:01:55.813Z,40.70
2018-03-24T16:04:23.806Z,40.30
2018-03-24T16:06:51.872Z,40.50
2018-03-24T16:09:19.929Z,41.40
2018-03-24T16:11:47.979Z,41.30
2018-03-24T16:14:16.035Z,42.00
2018-03-24T16:16:44.093Z,41.90
2018-03-24T16:19:12.155Z,42.40
2018-03-24T16:21:40.246Z,43.20
2018-03-24T16:24:08.307Z,43.30
2018-03-24T16:26:36.358Z,44.10
2018-03-24T16:29:05.187Z,44.60
2018-03-24T16:31:33.251Z,44.60
2018-03-24T16:34:01.303Z,45.20
2018-03-24T16:36:29.386Z,45.10
2018-03-24T16:38:57.444Z,45.00
2018-03-24T16:41:25.502Z,45.50
2018-03-24T16:43:54.394Z,45.60
2018-03-24T16:46:23.247Z,46.60
2018-03-24T16:48:51.317Z,46.00
2018-03-24T16:51:19.408Z,46.20
2018-03-24T16:53:47.463Z,46.30
2018-03-24T16:56:15.521Z,45.90
2018-03-24T16:58:44.361Z,46.50
2018-03-24T17:01:12.516Z,46.50
2018-03-24T17:03:40.614Z,46.50
2018-03-24T17:06:08.674Z,46.80
2018-03-24T17:08:36.730Z,46.80
2018-03-24T17:11:04.792Z,46.80
2018-03-24T17:13:32.857Z,47.80
2018-03-24T17:16:00.916Z,48.50
2018-03-24T17:18:29.751Z,48.60
2018-03-24T17:20:57.810Z,48.50
2018-03-24T17:23:26.642Z,48.20
2018-03-24T17:25:54.695Z,48.10
2018-03-24T17:28:23.519Z,48.90
2018-03-24T17:30:51.581Z,48.80
2018-03-24T17:33:20.404Z,49.40
2018-03-24T17:35:48.472Z,49.40
2018-03-24T17:38:17.308Z,50.00
2018-03-24T17:40:45.367Z,49.90
2018-03-24T17:43:13.453Z,50.20
2018-03-24T17:45:41.504Z,50.70
2018-03-24T17:48:09.571Z,50.90
2018-03-24T17:50:37.638Z,50.70
2018-03-24T17:53:05.708Z,51.20
2018-03-24T17:55:33.784Z,51.50
2018-03-24T17:58:01.836Z,51.90
2018-03-24T18:00:30.665Z,56.30
2018-03-24T18:02:58.724Z,56.30
2018-03-24T18:05:26.789Z,58.10
2018-03-24T18:07:54.861Z,59.10
2018-03-24T18:12:52.851Z,60.30
2018-03-24T18:15:20.906Z,60.30
2018-03-24T18:17:48.975Z,59.80
2018-03-24T18:20:17.803Z,59.70
2018-03-24T18:22:45.855Z,59.60
2018-03-24T18:25:14.697Z,59.60
2018-03-24T18:27:42.758Z,59.60
2018-03-24T18:30:10.843Z,59.70
2018-03-24T18:32:38.899Z,59.80
2018-03-24T18:35:07.757Z,60.80
2018-03-24T18:37:35.793Z,60.20
2018-03-24T18:40:04.626Z,61.90
2018-03-24T18:42:32.688Z,61.00
2018-03-24T18:45:01.520Z,60.60
2018-03-24T18:47:29.577Z,60.60
2018-03-24T18:49:57.663Z,60.50
2018-03-24T18:52:25.717Z,61.00
2018-03-24T18:54:53.780Z,61.80
2018-03-24T18:57:21.829Z,62.80
2018-03-24T18:59:49.896Z,63.30
2018-03-24T19:02:18.748Z,63.70
2018-03-24T19:04:46.840Z,63.70
2018-03-24T19:07:14.904Z,64.50
2018-03-24T19:09:42.969Z,65.10
2018-03-24T19:12:11.044Z,65.30
2018-03-24T19:14:39.129Z,65.80
2018-03-24T19:17:07.192Z,66.20
2018-03-24T19:19:35.284Z,66.30
2018-03-24T19:22:04.102Z,66.60
2018-03-24T19:24:32.186Z,67.30
2018-03-24T19:27:00.252Z,67.20
2018-03-24T19:29:29.074Z,68.00
2018-03-24T19:31:57.137Z,68.00
2018-03-24T19:34:25.990Z,68.70
2018-03-24T19:36:54.067Z,68.50
2018-03-24T19:39:22.142Z,68.40
2018-03-24T19:41:50.179Z,69.30
2018-03-24T19:44:18.248Z,69.60
2018-03-24T19:46:46.310Z,70.70
2018-03-24T19:49:14.375Z,71.40
2018-03-24T19:51:42.438Z,72.90
2018-03-24T19:54:10.494Z,72.90
2018-03-24T19:56:39.333Z,74.20
2018-03-24T19:59:07.467Z,74.10
2018-03-24T20:01:35.536Z,73.70
2018-03-24T20:04:03.592Z,73.30
2018-03-24T20:06:32.427Z,75.30
2018-03-24T20:09:00.475Z,75.20
2018-03-24T20:11:28.551Z,74.90
2018-03-24T20:13:56.597Z,74.50
2018-03-24T20:16:24.699Z,74.00
2018-03-24T20:18:52.714Z,74.90
2018-03-24T20:21:20.780Z,74.80
2018-03-24T20:23:48.843Z,74.80
2018-03-24T20:26:17.674Z,76.30
2018-03-24T20:28:45.777Z,75.50
2018-03-24T20:31:13.946Z,76.40
2018-03-24T20:33:42.921Z,76.80
2018-03-24T20:36:11.753Z,77.70
2018-03-24T20:38:39.803Z,77.70
2018-03-24T20:41:08.637Z,79.40
2018-03-24T20:43:36.693Z,79.30
2018-03-24T20:46:05.524Z,80.30
2018-03-24T20:48:33.598Z,80.30
2018-03-24T20:51:02.408Z,80.80
2018-03-24T20:53:30.478Z,80.70
2018-03-24T20:55:58.543Z,81.10
2018-03-24T20:58:27.377Z,82.60
2018-03-24T21:00:55.443Z,82.10
2018-03-24T21:03:24.280Z,83.30
2018-03-24T21:05:52.344Z,83.30
2018-03-24T21:08:20.428Z,84.30
2018-03-24T21:10:48.476Z,84.40
2018-03-24T21:13:16.551Z,84.20
2018-03-24T21:15:44.588Z,84.10
2018-03-24T21:18:12.652Z,84.60
2018-03-24T21:20:40.703Z,84.30
2018-03-24T21:23:08.771Z,85.80
2018-03-24T21:25:36.843Z,86.20
2018-03-24T21:28:04.900Z,86.90
2018-03-24T21:30:32.959Z,87.50
2018-03-24T21:33:01.027Z,88.90
2018-03-24T21:35:29.073Z,89.50
2018-03-24T21:37:57.145Z,89.70
2018-03-24T21:40:25.201Z,90.00
2018-03-24T21:42:53.288Z,90.50
2018-03-24T21:45:21.341Z,90.50
2018-03-24T21:47:49.397Z,90.50
2018-03-24T21:50:17.452Z,90.80
2018-03-24T21:52:45.534Z,91.10
2018-03-24T21:55:13.585Z,91.40
2018-03-24T21:57:42.414Z,91.60
2018-03-24T22:00:10.487Z,91.40
2018-03-24T22:02:39.312Z,92.00
2018-03-24T22:05:07.388Z,92.00
2018-03-24T22:07:35.453Z,91.80
2018-03-24T22:10:04.333Z,92.20
2018-03-24T22:12:32.424Z,92.10
2018-03-24T22:15:00.495Z,92.40
2018-03-24T22:17:28.574Z,92.30
2018-03-24T22:19:56.645Z,92.50
2018-03-24T22:22:24.710Z,92.60
2018-03-24T22:24:52.787Z,92.70
2018-03-24T22:27:20.850Z,93.20
2018-03-24T22:29:49.682Z,93.10
2018-03-24T22:32:17.736Z,93.00
2018-03-24T22:34:45.807Z,93.30
2018-03-24T22:37:14.648Z,93.60
2018-03-24T22:39:42.767Z,93.60
2018-03-24T22:42:10.787Z,93.20
2018-03-24T22:44:38.859Z,93.50
2018-03-24T22:47:07.683Z,93.70
2018-03-24T22:49:35.765Z,93.60
2018-03-24T22:52:04.587Z,93.50
2018-03-24T22:54:32.665Z,93.50
2018-03-24T22:57:00.734Z,93.60
2018-03-24T22:59:28.799Z,93.70
2018-03-24T23:01:57.631Z,93.70
2018-03-24T23:04:25.693Z,93.70
2018-03-24T23:06:54.536Z,93.70
2018-03-24T23:09:22.609Z,93.60
2018-03-24T23:11:50.678Z,93.80
2018-03-24T23:14:18.748Z,93.70
2018-03-24T23:16:46.812Z,93.70
2018-03-24T23:19:14.872Z,93.90
2018-03-24T23:21:42.948Z,93.90
2018-03-24T23:24:11.012Z,93.90
2018-03-24T23:26:39.093Z,94.00
2018-03-24T23:29:07.173Z,94.20
2018-03-24T23:31:35.241Z,94.90
2018-03-24T23:34:04.067Z,94.60
2018-03-24T23:36:32.146Z,94.50
2018-03-24T23:39:00.209Z,94.50
2018-03-24T23:41:28.285Z,94.60
2018-03-24T23:43:57.118Z,94.90
2018-03-24T23:46:25.197Z,94.80
2018-03-24T23:48:53.263Z,94.90
2018-03-24T23:51:21.340Z,94.80
2018-03-24T23:53:50.176Z,94.80
2018-03-24T23:56:18.244Z,94.70
2018-03-24T23:58:46.308Z,94.70
